createdAt,value
2022-12-03T00:01:20.150Z,5.04
2022-12-03T00:03:47.607Z,5.03
2022-12-03T00:06:15.196Z,5.00
2022-12-03T00:08:42.310Z,4.98
2022-12-03T00:11:09.983Z,4.95
2022-12-03T00:13:37.412Z,4.95
2022-12-03T00:16:05.097Z,4.93
2022-12-03T00:18:32.519Z,4.95
2022-12-03T00:20:59.805Z,4.91
2022-12-03T00:23:26.999Z,4.85
2022-12-03T00:25:54.310Z,4.85
2022-12-03T00:28:21.682Z,4.86
2022-12-03T00:30:49.657Z,4.85
2022-12-03T00:33:16.935Z,4.85
2022-12-03T00:35:44.200Z,4.90
2022-12-03T00:38:11.627Z,4.86
2022-12-03T00:40:38.943Z,4.86
2022-12-03T00:43:06.517Z,4.87
2022-12-03T00:45:33.928Z,4.89
2022-12-03T00:48:01.201Z,4.91
2022-12-03T00:50:28.768Z,4.92
2022-12-03T00:52:56.095Z,4.88
2022-12-03T00:55:24.982Z,4.91
2022-12-03T00:57:52.286Z,4.93
2022-12-03T01:00:24.842Z,4.90
2022-12-03T01:02:53.345Z,4.71
2022-12-03T01:05:21.066Z,4.76
2022-12-03T01:07:48.574Z,4.87
2022-12-03T01:10:16.001Z,4.87
2022-12-03T01:12:43.500Z,4.87
2022-12-03T01:15:11.243Z,4.75
2022-12-03T01:17:39.088Z,4.94
2022-12-03T01:20:09.347Z,4.75
2022-12-03T01:22:37.234Z,4.94
2022-12-03T01:25:04.917Z,4.87
2022-12-03T01:27:32.788Z,4.98
2022-12-03T01:30:00.012Z,4.89
2022-12-03T01:32:27.334Z,4.94
2022-12-03T01:34:56.482Z,4.87
2022-12-03T01:37:26.276Z,4.58
2022-12-03T01:39:54.080Z,4.80
2022-12-03T01:42:36.409Z,4.79
2022-12-03T01:45:04.405Z,4.85
2022-12-03T01:47:36.823Z,4.79
2022-12-03T01:50:23.589Z,4.85
2022-12-03T01:52:51.375Z,4.76
2022-12-03T01:55:22.095Z,4.76
2022-12-03T01:57:53.109Z,4.72
2022-12-03T02:00:23.343Z,4.67
2022-12-03T02:02:57.596Z,4.64
2022-12-03T02:05:35.662Z,4.63
2022-12-03T02:08:03.079Z,4.62
2022-12-03T02:10:36.420Z,4.61
2022-12-03T02:13:08.086Z,4.65
2022-12-03T02:15:37.162Z,4.60
2022-12-03T02:18:04.685Z,4.54
2022-12-03T02:20:36.186Z,4.48
2022-12-03T02:23:09.505Z,4.43
2022-12-03T02:25:38.296Z,4.63
2022-12-03T02:28:08.587Z,4.58
2022-12-03T02:30:36.761Z,4.57
2022-12-03T02:33:04.547Z,4.56
2022-12-03T02:35:36.935Z,4.53
2022-12-03T02:38:19.306Z,4.61
2022-12-03T02:40:49.443Z,4.58
2022-12-03T02:43:18.615Z,4.61
2022-12-03T02:45:49.907Z,4.58
2022-12-03T02:48:20.815Z,4.62
2022-12-03T02:50:54.236Z,4.50
2022-12-03T02:53:23.589Z,4.68
2022-12-03T02:55:52.378Z,4.71
2022-12-03T02:58:20.956Z,4.74
2022-12-03T03:00:49.609Z,4.73
2022-12-03T03:03:19.261Z,4.71
2022-12-03T03:05:48.322Z,4.67
2022-12-03T03:08:17.197Z,4.66
2022-12-03T03:10:46.697Z,4.69
2022-12-03T03:13:18.642Z,4.66
2022-12-03T03:15:46.436Z,4.69
2022-12-03T03:18:15.579Z,4.66
2022-12-03T03:20:44.570Z,4.66
2022-12-03T03:23:18.065Z,4.50
2022-12-03T03:25:50.345Z,4.62
2022-12-03T03:28:19.188Z,4.56
2022-12-03T03:30:47.558Z,4.55
2022-12-03T03:33:16.382Z,4.57
2022-12-03T03:35:45.626Z,4.47
2022-12-03T03:38:13.400Z,4.56
2022-12-03T03:40:41.612Z,4.55
2022-12-03T03:43:09.065Z,4.55
2022-12-03T03:45:36.858Z,4.56
2022-12-03T03:48:04.659Z,4.54
2022-12-03T03:50:32.801Z,4.62
2022-12-03T03:53:02.173Z,4.61
2022-12-03T03:55:30.549Z,4.63
2022-12-03T03:57:57.866Z,4.65
2022-12-03T04:00:26.196Z,4.64
2022-12-03T04:02:54.998Z,4.57
2022-12-03T04:05:24.356Z,4.63
2022-12-03T04:07:52.013Z,4.62
2022-12-03T04:10:38.485Z,4.59
2022-12-03T04:13:06.309Z,4.53
2022-12-03T04:15:33.539Z,4.53
2022-12-03T04:18:19.696Z,4.56
2022-12-03T04:20:47.115Z,4.59
2022-12-03T04:23:14.393Z,4.57
2022-12-03T04:26:00.032Z,4.59
2022-12-03T04:28:45.837Z,4.59
2022-12-03T04:31:31.973Z,4.56
2022-12-03T04:34:17.859Z,4.53
2022-12-03T04:36:45.245Z,4.57
2022-12-03T04:39:12.547Z,4.29
2022-12-03T04:41:40.211Z,4.51
2022-12-03T04:44:26.173Z,4.51
2022-12-03T04:46:53.897Z,4.53
2022-12-03T04:49:22.301Z,4.51
2022-12-03T04:51:49.628Z,4.48
2022-12-03T04:54:16.796Z,4.43
2022-12-03T04:56:44.394Z,4.36
2022-12-03T04:59:15.965Z,4.26
2022-12-03T05:01:44.705Z,4.26
2022-12-03T05:04:13.713Z,4.19
2022-12-03T05:06:41.877Z,4.14
2022-12-03T05:09:09.766Z,4.24
2022-12-03T05:11:37.154Z,4.23
2022-12-03T05:14:04.732Z,4.21
2022-12-03T05:16:32.177Z,4.13
2022-12-03T05:18:59.758Z,4.12
2022-12-03T05:21:27.162Z,4.10
2022-12-03T05:23:54.844Z,4.04
2022-12-03T05:26:22.847Z,4.01
2022-12-03T05:28:50.284Z,4.09
2022-12-03T05:31:18.236Z,4.09
2022-12-03T05:33:45.537Z,4.08
2022-12-03T05:36:12.763Z,4.02
2022-12-03T05:38:40.059Z,4.01
2022-12-03T05:41:27.531Z,3.92
2022-12-03T05:43:54.969Z,3.88
2022-12-03T05:46:22.798Z,3.88
2022-12-03T05:48:50.108Z,3.90
2022-12-03T05:51:17.425Z,3.92
2022-12-03T05:53:44.644Z,3.87
2022-12-03T05:56:11.942Z,3.89
2022-12-03T05:58:39.487Z,3.87
2022-12-03T06:01:07.314Z,3.85
2022-12-03T06:03:34.884Z,3.82
2022-12-03T06:06:02.413Z,3.82
2022-12-03T06:08:29.800Z,3.81
2022-12-03T06:10:57.621Z,3.80
2022-12-03T06:13:26.113Z,3.82
2022-12-03T06:15:53.392Z,3.73
2022-12-03T06:18:20.693Z,3.80
2022-12-03T06:20:47.943Z,3.74
2022-12-03T06:23:15.363Z,3.75
2022-12-03T06:25:42.784Z,3.74
2022-12-03T06:28:10.182Z,3.66
2022-12-03T06:30:37.575Z,3.65
2022-12-03T06:33:05.266Z,3.65
2022-12-03T06:35:32.466Z,3.69
2022-12-03T06:37:59.844Z,3.71
2022-12-03T06:40:27.359Z,3.70
2022-12-03T06:42:54.701Z,3.82
2022-12-03T06:45:22.103Z,3.88
2022-12-03T06:47:49.394Z,3.87
2022-12-03T06:50:16.706Z,3.82
2022-12-03T06:52:44.161Z,3.83
2022-12-03T06:55:11.477Z,3.81
2022-12-03T06:57:38.952Z,3.89
2022-12-03T07:00:08.711Z,3.93
2022-12-03T07:02:36.843Z,3.88
2022-12-03T07:05:05.313Z,3.89
2022-12-03T07:07:32.736Z,3.87
2022-12-03T07:10:00.118Z,3.97
2022-12-03T07:12:27.557Z,3.97
2022-12-03T07:14:55.082Z,4.00
2022-12-03T07:17:23.153Z,4.00
2022-12-03T07:19:50.726Z,3.99
2022-12-03T07:22:18.107Z,4.00
2022-12-03T07:24:45.594Z,4.05
2022-12-03T07:27:13.374Z,4.03
2022-12-03T07:29:40.850Z,4.06
2022-12-03T07:32:13.974Z,4.06
2022-12-03T07:34:48.574Z,4.11
2022-12-03T07:37:26.380Z,4.07
2022-12-03T07:39:54.958Z,4.11
2022-12-03T07:42:22.176Z,4.22
2022-12-03T07:44:49.724Z,4.18
2022-12-03T07:47:17.656Z,4.18
2022-12-03T07:49:45.031Z,4.21
2022-12-03T07:52:12.330Z,4.20
2022-12-03T07:54:40.152Z,4.23
2022-12-03T07:57:07.594Z,4.26
2022-12-03T07:59:35.317Z,4.28
2022-12-03T08:02:03.218Z,4.30
2022-12-03T08:04:30.792Z,4.34
2022-12-03T08:06:58.160Z,4.36
2022-12-03T08:09:25.496Z,4.37
2022-12-03T08:11:52.900Z,4.39
2022-12-03T08:14:21.461Z,4.47
2022-12-03T08:16:49.558Z,4.38
2022-12-03T08:19:18.741Z,4.53
2022-12-03T08:21:46.252Z,4.54
2022-12-03T08:24:16.908Z,4.55
2022-12-03T08:26:45.585Z,4.47
2022-12-03T08:29:16.090Z,4.43
2022-12-03T08:31:54.223Z,4.50
2022-12-03T08:34:24.519Z,4.63
2022-12-03T08:36:56.862Z,4.60
2022-12-03T08:39:34.747Z,4.61
2022-12-03T08:42:23.565Z,4.66
2022-12-03T08:44:51.058Z,4.78
2022-12-03T08:47:25.122Z,4.71
2022-12-03T08:50:00.257Z,4.81
2022-12-03T08:52:32.946Z,4.81
2022-12-03T08:55:11.282Z,4.72
2022-12-03T08:57:41.995Z,4.84
2022-12-03T09:00:13.540Z,4.87
2022-12-03T09:02:46.576Z,4.88
2022-12-03T09:05:17.698Z,4.93
2022-12-03T09:07:45.206Z,5.03
2022-12-03T09:10:12.997Z,4.97
2022-12-03T09:12:40.474Z,5.02
2022-12-03T09:15:08.864Z,4.96
2022-12-03T09:17:36.206Z,5.16
2022-12-03T09:20:05.904Z,5.19
2022-12-03T09:22:33.129Z,5.26
2022-12-03T09:25:01.754Z,5.30
2022-12-03T09:27:29.474Z,5.35
2022-12-03T09:29:56.791Z,5.43
2022-12-03T09:32:24.267Z,5.46
2022-12-03T09:34:52.550Z,5.48
2022-12-03T09:37:20.284Z,5.51
2022-12-03T09:39:47.801Z,5.42
2022-12-03T09:42:15.899Z,5.51
2022-12-03T09:44:44.240Z,5.48
2022-12-03T09:47:12.585Z,5.53
2022-12-03T09:49:40.984Z,5.57
2022-12-03T09:52:10.884Z,5.68
2022-12-03T09:54:51.976Z,5.77
2022-12-03T09:57:20.135Z,5.79
2022-12-03T09:59:48.330Z,5.86
2022-12-03T10:02:23.010Z,5.76
2022-12-03T10:04:50.963Z,5.84
2022-12-03T10:07:18.527Z,5.83
2022-12-03T10:09:46.330Z,5.86
2022-12-03T10:12:15.539Z,5.86
2022-12-03T10:14:43.608Z,5.88
2022-12-03T10:17:12.729Z,5.84
2022-12-03T10:19:40.695Z,5.92
2022-12-03T10:22:08.162Z,5.88
2022-12-03T10:24:37.316Z,5.80
2022-12-03T10:27:25.510Z,5.97
2022-12-03T10:29:58.415Z,5.98
2022-12-03T10:32:44.814Z,5.96
2022-12-03T10:35:41.471Z,6.09
2022-12-03T10:38:20.886Z,6.03
2022-12-03T10:40:48.848Z,6.00
2022-12-03T10:43:24.759Z,6.20
2022-12-03T10:46:05.022Z,6.16
2022-12-03T10:48:33.177Z,5.94
2022-12-03T10:51:14.422Z,6.14
2022-12-03T10:53:42.392Z,6.13
2022-12-03T10:56:22.934Z,6.17
2022-12-03T10:58:50.352Z,6.07
2022-12-03T11:01:20.584Z,6.06
2022-12-03T11:03:48.814Z,6.16
2022-12-03T11:06:19.877Z,6.03
2022-12-03T11:08:56.324Z,6.28
2022-12-03T11:11:29.429Z,6.35
2022-12-03T11:14:01.176Z,6.42
2022-12-03T11:16:52.587Z,6.39
2022-12-03T11:19:44.562Z,6.37
2022-12-03T11:22:12.049Z,6.25
2022-12-03T11:24:41.455Z,6.33
2022-12-03T11:27:19.608Z,6.34
2022-12-03T11:29:57.272Z,6.42
2022-12-03T11:32:40.196Z,6.38
2022-12-03T11:35:27.758Z,6.34
2022-12-03T11:37:55.137Z,6.40
2022-12-03T11:40:22.312Z,6.48
2022-12-03T11:42:50.162Z,6.32
2022-12-03T11:45:31.480Z,6.51
2022-12-03T11:47:58.818Z,6.42
2022-12-03T11:50:39.606Z,6.52
2022-12-03T11:53:18.376Z,6.58
2022-12-03T11:55:52.909Z,6.62
2022-12-03T11:58:26.997Z,6.57
2022-12-03T12:00:57.547Z,6.37
2022-12-03T12:03:36.190Z,6.65
2022-12-03T12:06:07.732Z,6.66
2022-12-03T12:08:38.194Z,6.63
2022-12-03T12:11:17.945Z,6.60
2022-12-03T12:13:45.153Z,6.60
2022-12-03T12:16:12.712Z,6.55
2022-12-03T12:18:43.389Z,6.50
2022-12-03T12:21:42.974Z,6.59
2022-12-03T12:24:40.918Z,6.55
2022-12-03T12:27:14.032Z,6.53
2022-12-03T12:29:43.274Z,6.56
2022-12-03T12:32:13.517Z,6.52
2022-12-03T12:34:46.285Z,6.44
2022-12-03T12:37:24.130Z,6.41
2022-12-03T12:39:57.445Z,6.44
2022-12-03T12:42:41.646Z,6.57
2022-12-03T12:45:17.866Z,6.48
2022-12-03T12:48:17.187Z,6.42
2022-12-03T12:50:50.527Z,6.44
2022-12-03T12:53:26.525Z,6.45
2022-12-03T12:56:03.914Z,6.35
2022-12-03T12:58:34.934Z,6.51
2022-12-03T13:01:08.419Z,6.57
2022-12-03T13:03:41.453Z,6.56
2022-12-03T13:06:16.287Z,6.54
2022-12-03T13:08:48.992Z,6.50
2022-12-03T13:11:39.061Z,6.65
2022-12-03T13:14:13.977Z,6.73
2022-12-03T13:16:46.297Z,6.82
2022-12-03T13:19:24.342Z,6.91
2022-12-03T13:21:54.943Z,6.91
2022-12-03T13:24:45.917Z,6.94
2022-12-03T13:27:25.016Z,6.96
2022-12-03T13:30:14.754Z,6.87
2022-12-03T13:32:44.336Z,6.76
2022-12-03T13:35:32.525Z,6.77
2022-12-03T13:38:01.958Z,6.65
2022-12-03T13:40:31.671Z,6.68
2022-12-03T13:43:11.312Z,6.76
2022-12-03T13:45:40.826Z,6.70
2022-12-03T13:48:19.111Z,6.63
2022-12-03T13:50:56.720Z,6.77
2022-12-03T13:53:40.035Z,6.84
2022-12-03T13:56:44.285Z,6.89
2022-12-03T13:59:14.253Z,6.88
2022-12-03T14:01:42.048Z,6.87
2022-12-03T14:04:10.450Z,6.88
2022-12-03T14:06:42.403Z,6.84
2022-12-03T14:09:25.720Z,6.85
2022-12-03T14:12:11.580Z,6.80
2022-12-03T14:14:41.809Z,6.74
2022-12-03T14:17:14.982Z,6.81
2022-12-03T14:19:49.322Z,6.74
2022-12-03T14:22:19.948Z,6.77
2022-12-03T14:24:57.840Z,6.60
2022-12-03T14:27:30.597Z,6.68
2022-12-03T14:30:10.045Z,6.81
2022-12-03T14:32:41.230Z,6.58
2022-12-03T14:35:16.214Z,6.84
2022-12-03T14:37:45.617Z,6.90
2022-12-03T14:40:21.616Z,6.80
2022-12-03T14:42:53.973Z,6.87
2022-12-03T14:45:21.326Z,6.83
2022-12-03T14:47:57.879Z,6.82
2022-12-03T14:50:34.766Z,6.84
2022-12-03T14:53:02.262Z,6.83
2022-12-03T14:55:30.116Z,6.83
2022-12-03T14:57:57.516Z,6.81
2022-12-03T15:00:25.607Z,6.84
2022-12-03T15:02:53.177Z,6.81
2022-12-03T15:05:27.966Z,6.80
2022-12-03T15:07:56.786Z,6.78
2022-12-03T15:10:24.302Z,6.75
2022-12-03T15:12:51.678Z,6.68
2022-12-03T15:15:19.269Z,6.73
2022-12-03T15:17:50.307Z,6.74
2022-12-03T15:20:19.432Z,6.71
2022-12-03T15:22:46.914Z,6.73
2022-12-03T15:25:14.670Z,6.70
2022-12-03T15:27:42.138Z,6.57
2022-12-03T15:30:10.667Z,6.69
2022-12-03T15:32:40.761Z,6.67
2022-12-03T15:35:08.897Z,6.66
2022-12-03T15:37:36.508Z,6.64
2022-12-03T15:40:04.562Z,6.57
2022-12-03T15:42:32.637Z,6.55
2022-12-03T15:45:00.383Z,6.47
2022-12-03T15:47:28.108Z,6.46
2022-12-03T15:49:56.079Z,6.44
2022-12-03T15:52:26.784Z,6.38
2022-12-03T15:55:00.217Z,6.31
2022-12-03T15:57:27.490Z,6.32
2022-12-03T15:59:56.284Z,6.22
2022-12-03T16:02:24.640Z,6.18
2022-12-03T16:04:52.833Z,6.00
2022-12-03T16:07:20.406Z,5.97
2022-12-03T16:09:48.048Z,5.87
2022-12-03T16:12:18.175Z,5.84
2022-12-03T16:14:46.400Z,5.79
2022-12-03T16:17:13.808Z,5.77
2022-12-03T16:19:42.011Z,5.76
2022-12-03T16:22:09.975Z,5.74
2022-12-03T16:24:38.119Z,5.75
2022-12-03T16:27:05.885Z,5.62
2022-12-03T16:29:34.006Z,5.51
2022-12-03T16:32:01.544Z,5.44
2022-12-03T16:34:29.107Z,5.44
2022-12-03T16:36:59.938Z,5.42
2022-12-03T16:39:29.756Z,5.21
2022-12-03T16:41:57.679Z,5.35
2022-12-03T16:44:47.193Z,5.39
2022-12-03T16:47:18.199Z,5.40
2022-12-03T16:49:49.601Z,5.46
2022-12-03T16:52:17.273Z,5.47
2022-12-03T16:54:44.567Z,5.42
2022-12-03T16:57:12.616Z,5.40
2022-12-03T16:59:41.258Z,5.43
2022-12-03T17:02:13.126Z,5.46
2022-12-03T17:04:41.191Z,5.37
2022-12-03T17:07:08.382Z,5.36
2022-12-03T17:09:35.961Z,5.38
2022-12-03T17:12:06.962Z,5.36
2022-12-03T17:14:34.801Z,5.41
2022-12-03T17:17:02.876Z,5.36
2022-12-03T17:19:33.136Z,5.42
2022-12-03T17:22:01.076Z,5.39
2022-12-03T17:24:28.518Z,5.40
2022-12-03T17:26:56.124Z,5.35
2022-12-03T17:29:25.142Z,5.40
2022-12-03T17:31:52.753Z,5.44
2022-12-03T17:34:20.692Z,5.38
2022-12-03T17:36:48.084Z,5.37
2022-12-03T17:39:16.781Z,5.33
2022-12-03T17:41:44.381Z,5.29
2022-12-03T17:44:17.771Z,5.40
2022-12-03T17:46:54.524Z,5.38
2022-12-03T17:49:31.132Z,5.39
2022-12-03T17:51:59.449Z,5.27
2022-12-03T17:54:43.199Z,5.44
2022-12-03T17:57:17.774Z,5.37
2022-12-03T17:59:45.410Z,5.38
2022-12-03T18:02:12.669Z,5.43
2022-12-03T18:04:40.592Z,5.39
2022-12-03T18:07:09.764Z,5.29
2022-12-03T18:09:37.029Z,5.33
2022-12-03T18:12:05.003Z,5.30
2022-12-03T18:14:35.885Z,5.23
2022-12-03T18:17:07.433Z,5.20
2022-12-03T18:19:35.676Z,5.11
2022-12-03T18:22:06.683Z,5.12
2022-12-03T18:24:41.384Z,5.09
2022-12-03T18:27:09.226Z,5.06
2022-12-03T18:29:37.268Z,5.08
2022-12-03T18:32:27.798Z,5.01
2022-12-03T18:34:56.715Z,4.95
2022-12-03T18:37:28.015Z,4.88
2022-12-03T18:39:58.330Z,4.67
2022-12-03T18:42:26.099Z,4.74
2022-12-03T18:44:55.453Z,4.72
2022-12-03T18:47:32.333Z,4.63
2022-12-03T18:49:59.944Z,4.67
2022-12-03T18:52:30.844Z,4.66
2022-12-03T18:54:58.633Z,4.72
2022-12-03T18:57:26.576Z,4.74
2022-12-03T18:59:54.476Z,4.73
2022-12-03T19:05:10.060Z,4.87
2022-12-03T19:07:38.582Z,4.86
2022-12-03T19:10:06.675Z,4.72
2022-12-03T19:12:34.346Z,4.77
2022-12-03T19:15:05.800Z,4.68
2022-12-03T19:17:33.705Z,4.73
2022-12-03T19:20:01.268Z,4.70
2022-12-03T19:22:29.133Z,4.68
2022-12-03T19:24:56.459Z,4.73
2022-12-03T19:27:23.772Z,4.65
2022-12-03T19:29:51.374Z,4.64
2022-12-03T19:32:19.244Z,4.53
2022-12-03T19:34:46.806Z,4.41
2022-12-03T19:37:14.402Z,4.57
2022-12-03T19:39:45.101Z,4.53
2022-12-03T19:42:15.548Z,4.49
2022-12-03T19:44:43.134Z,4.43
2022-12-03T19:47:10.502Z,4.47
2022-12-03T19:49:39.530Z,4.39
2022-12-03T19:52:08.591Z,4.47
2022-12-03T19:54:38.096Z,4.42
2022-12-03T19:57:06.674Z,4.32
2022-12-03T19:59:35.715Z,4.23
2022-12-03T20:02:04.342Z,4.18
2022-12-03T20:04:32.191Z,4.24
2022-12-03T20:06:59.737Z,4.08
2022-12-03T20:09:27.323Z,3.98
2022-12-03T20:11:56.463Z,3.89
2022-12-03T20:14:24.319Z,3.78
2022-12-03T20:16:52.643Z,3.73
2022-12-03T20:19:25.886Z,3.64
2022-12-03T20:21:59.005Z,3.53
2022-12-03T20:24:31.242Z,3.50
2022-12-03T20:26:59.023Z,3.52
2022-12-03T20:29:27.269Z,3.41
2022-12-03T20:31:55.244Z,3.40
2022-12-03T20:34:22.615Z,3.44
2022-12-03T20:36:50.140Z,3.46
2022-12-03T20:39:17.431Z,3.49
2022-12-03T20:41:44.675Z,3.50
2022-12-03T20:44:14.714Z,3.52
2022-12-03T20:46:43.371Z,3.46
2022-12-03T20:49:10.767Z,3.25
2022-12-03T20:51:38.211Z,3.29
2022-12-03T20:54:05.778Z,3.20
2022-12-03T20:56:35.972Z,3.13
2022-12-03T20:59:13.014Z,3.07
2022-12-03T21:01:41.627Z,2.92
2022-12-03T21:04:11.012Z,2.84
2022-12-03T21:06:42.665Z,2.77
2022-12-03T21:09:12.099Z,2.86
2022-12-03T21:11:42.693Z,2.83
2022-12-03T21:14:11.645Z,2.79
2022-12-03T21:17:07.177Z,2.60
2022-12-03T21:19:31.119Z,2.65
2022-12-03T21:21:58.591Z,2.57
2022-12-03T21:24:26.425Z,2.45
2022-12-03T21:26:54.663Z,2.42
2022-12-03T21:29:23.000Z,2.35
2022-12-03T21:31:50.561Z,2.29
2022-12-03T21:34:18.314Z,2.29
2022-12-03T21:36:45.898Z,2.22
2022-12-03T21:39:13.788Z,2.17
2022-12-03T21:41:41.402Z,2.07
2022-12-03T21:44:28.836Z,2.10
2022-12-03T21:47:10.001Z,2.11
2022-12-03T21:49:40.488Z,1.99
2022-12-03T21:52:11.291Z,1.94
2022-12-03T21:54:39.069Z,1.93
2022-12-03T21:57:06.667Z,1.82
2022-12-03T21:59:33.896Z,1.81
2022-12-03T22:02:01.574Z,1.82
2022-12-03T22:04:28.913Z,1.78
2022-12-03T22:06:56.477Z,1.77
2022-12-03T22:09:26.777Z,1.73
2022-12-03T22:11:57.474Z,1.67
2022-12-03T22:14:25.463Z,1.66
2022-12-03T22:16:52.976Z,1.65
2022-12-03T22:19:24.224Z,1.52
2022-12-03T22:21:52.217Z,1.59
2022-12-03T22:24:19.850Z,1.57
2022-12-03T22:26:47.754Z,1.54
2022-12-03T22:29:15.593Z,1.40
2022-12-03T22:31:44.254Z,1.43
2022-12-03T22:34:11.764Z,1.45
2022-12-03T22:36:39.586Z,1.19
2022-12-03T22:39:07.316Z,1.43
2022-12-03T22:41:34.521Z,1.30
2022-12-03T22:44:02.287Z,1.29
2022-12-03T22:46:29.638Z,1.26
2022-12-03T22:48:59.441Z,1.22
2022-12-03T22:51:31.435Z,1.20
2022-12-03T22:54:00.082Z,1.28
2022-12-03T22:56:28.765Z,1.17
2022-12-03T22:58:56.372Z,1.13
2022-12-03T23:01:35.295Z,1.09
2022-12-03T23:04:03.103Z,1.05
2022-12-03T23:06:31.605Z,1.04
2022-12-03T23:08:59.183Z,1.03
2022-12-03T23:11:26.629Z,1.04
2022-12-03T23:13:54.929Z,0.93
2022-12-03T23:16:26.544Z,0.97
2022-12-03T23:18:54.467Z,0.78
2022-12-03T23:21:29.708Z,0.88
2022-12-03T23:24:01.315Z,0.88
2022-12-03T23:26:29.595Z,0.52
2022-12-03T23:28:57.326Z,0.74
2022-12-03T23:31:30.382Z,0.69
2022-12-03T23:33:59.709Z,0.62
2022-12-03T23:36:32.844Z,0.65
2022-12-03T23:39:00.652Z,0.71
2022-12-03T23:41:28.111Z,0.68
2022-12-03T23:43:56.467Z,0.72
2022-12-03T23:46:26.707Z,0.62
2022-12-03T23:48:54.193Z,0.82
2022-12-03T23:51:24.607Z,0.79
2022-12-03T23:53:53.608Z,0.78
2022-12-03T23:56:24.577Z,0.64
2022-12-03T23:58:53.075Z,0.69
